Data for 01/01/2006

Time Sea-Level Adjusted Pressure Absolute Pressure Temperature Relative Humidity Dew Point   
(mb) (inHg) (mb) (inHg) (C) (F) (%) (C) (F)
00:05 997 29.44 826 24.39 4.4 39.9 71 -0.4 31.3
00:10 997 29.44 826 24.39 4.6 40.3 69 -0.7 30.8
00:15 997 29.44 826 24.39 4.8 40.7 69 -0.3 31.5
00:20 997 29.44 826 24.39 4.5 40.2 69 -0.6 31
00:25 997 29.44 826 24.39 4.3 39.8 74 0.1 32.1
00:30 997 29.44 826 24.39 3.9 39 73 -0.5 31.1
00:35 997 29.44 827 24.42 4.3 39.8 71 -0.4 31.3
00:40 997 29.44 827 24.42 4.3 39.7 73 -0.2 31.7
00:45 997 29.44 827 24.42 4.1 39.3 74 -0.2 31.6
00:50 998 29.47 827 24.42 4.2 39.5 72 -0.4 31.3
00:55 998 29.47 827 24.42 4.5 40.1 71 -0.3 31.5
01:00 998 29.47 827 24.42 4.5 40.1 72 -0.1 31.8
01:05 998 29.47 827 24.42 4.1 39.3 73 -0.3 31.5
01:10 998 29.47 827 24.42 3.7 38.7 76 -0.1 31.7
01:15 998 29.47 827 24.42 3.5 38.3 76 -0.3 31.5
01:20 998 29.47 827 24.42 3.2 37.7 78 -0.2 31.6
01:25 998 29.47 827 24.42 2.9 37.2 79 -0.4 31.3
01:30 998 29.47 827 24.42 3 37.4 80 -0.1 31.8
01:35 998 29.47 827 24.42 2.9 37.2 81 -0.1 31.8
01:40 998 29.47 827 24.42 2.8 37.1 81 -0.1 31.8
01:45 998 29.47 827 24.42 3 37.4 80 -0.1 31.8
01:50 998 29.47 827 24.42 2.9 37.3 79 -0.3 31.5
01:55 998 29.47 827 24.42 2.9 37.2 81 -0.1 31.8
02:00 998 29.47 827 24.42 2.8 37 82 -0.1 31.9
02:05 998 29.47 827 24.42 2.8 37.1 80 -0.3 31.5
02:10 998 29.47 828 24.45 3 37.4 80 -0 31.9
02:15 998 29.47 828 24.45 2.9 37.2 80 -0.1 31.7
02:20 999 29.5 828 24.45 3.2 37.8 78 -0.3 31.4
02:25 999 29.5 828 24.45 3.1 37.6 79 -0.1 31.7
02:30 999 29.5 828 24.45 2.9 37.3 80 -0.1 31.8
02:35 999 29.5 828 24.45 2.9 37.1 80 -0.2 31.7
02:40 999 29.5 828 24.45 2.9 37.1 81 -0.2 31.7
02:45 999 29.5 828 24.45 2.9 37.2 80 -0.3 31.5
02:50 999 29.5 828 24.45 2.9 37.2 80 -0.2 31.7
02:55 999 29.5 828 24.45 2.8 37 80 -0.3 31.5
03:00 999 29.5 828 24.45 2.8 37 80 -0.3 31.5
03:05 999 29.5 828 24.45 2.8 37 80 -0.3 31.4
03:10 999 29.5 828 24.45 2.8 37 79 -0.4 31.2
03:15 999 29.5 828 24.45 2.9 37.2 79 -0.4 31.2
03:20 999 29.5 828 24.45 2.8 37 80 -0.3 31.4
03:25 999 29.5 828 24.45 2.5 36.6 81 -0.5 31.2
03:30 999 29.5 829 24.48 2.4 36.4 82 -0.4 31.3
03:35 999 29.5 829 24.48 2.3 36.1 82 -0.5 31.1
03:40 999 29.5 829 24.48 2.3 36.1 81 -0.6 30.8
03:45 999 29.5 829 24.48 2.4 36.3 80 -0.7 30.7
03:50 999 29.5 829 24.48 2.7 36.8 79 -0.6 30.9
03:55 999 29.5 829 24.48 2.8 37 78 -0.7 30.8
04:00 999 29.5 829 24.48 2.8 37 79 -0.6 31
04:05 1000 29.53 829 24.48 2.8 37 79 -0.4 31.2
04:10 1000 29.53 829 24.48 3 37.4 77 -0.7 30.8
04:15 1000 29.53 829 24.48 3.2 37.7 77 -0.5 31.1
04:20 1000 29.53 829 24.48 3.1 37.7 76 -0.6 30.9
04:25 1000 29.53 829 24.48 3.1 37.5 77 -0.6 31
04:30 1000 29.53 829 24.48 3.2 37.7 75 -0.8 30.5
04:35 1000 29.53 829 24.48 3.5 38.3 74 -0.7 30.7
04:40 1000 29.53 829 24.48 4 39.2 66 -1.7 28.9
04:45 1000 29.53 829 24.48 4.7 40.5 63 -1.6 29.1
04:50 1000 29.53 829 24.48 5.1 41.1 64 -1.1 30
04:55 1000 29.53 829 24.48 5.1 41.1 65 -1.1 30.1
05:00 1000 29.53 830 24.51 4.9 40.8 65 -1.2 29.9
05:05 1000 29.53 830 24.51 4.9 40.7 65 -1.3 29.7
05:10 1001 29.56 830 24.51 4.8 40.6 64 -1.4 29.5
05:15 1001 29.56 830 24.51 4.7 40.4 65 -1.4 29.5
05:20 1001 29.56 830 24.51 4.6 40.3 66 -1.1 29.9
05:25 1001 29.56 830 24.51 4.4 39.9 69 -0.7 30.8
05:30 1001 29.56 831 24.54 4 39.2 71 -0.8 30.6
05:35 1002 29.59 831 24.54 3.8 38.8 73 -0.6 30.9
05:40 1002 29.59 831 24.54 3.5 38.4 75 -0.5 31.2
05:45 1002 29.59 831 24.54 3.2 37.7 77 -0.5 31.2
05:50 1002 29.59 831 24.54 2.9 37.2 78 -0.5 31
05:55 1002 29.59 832 24.57 2.8 37.1 78 -0.6 30.9
06:00 1003 29.62 832 24.57 2.8 37.1 79 -0.5 31.1
06:05 1003 29.62 832 24.57 2.9 37.2 78 -0.5 31.1
06:10 1003 29.62 832 24.57 2.9 37.3 78 -0.5 31.1
06:15 1003 29.62 832 24.57 2.9 37.3 78 -0.5 31.2
06:20 1003 29.62 832 24.57 2.9 37.2 79 -0.4 31.3
06:25 1003 29.62 832 24.57 2.8 37 79 -0.4 31.2
06:30 1003 29.62 832 24.57 2.7 36.9 79 -0.5 31.2
06:35 1003 29.62 832 24.57 2.7 36.8 79 -0.6 31
06:40 1003 29.62 833 24.6 2.7 36.9 79 -0.5 31.1
06:45 1003 29.62 833 24.6 2.7 36.9 79 -0.5 31.1
06:50 1004 29.65 833 24.6 2.7 36.9 80 -0.5 31.1
06:55 1004 29.65 833 24.6 2.4 36.4 83 -0.2 31.6
07:00 1004 29.65 833 24.6 2.1 35.7 83 -0.5 31.1
07:05 1004 29.65 833 24.6 2.2 35.9 81 -0.8 30.5
07:10 1004 29.65 833 24.6 2.6 36.7 77 -1.1 30.1
07:15 1004 29.65 833 24.6 3 37.4 75 -1 30.2
07:20 1004 29.65 833 24.6 3.2 37.7 74 -1 30.2
07:25 1004 29.65 833 24.6 3.2 37.7 74 -1.1 30.1
07:30 1004 29.65 834 24.63 3.2 37.7 74 -1 30.2
07:35 1004 29.65 834 24.63 3 37.4 74 -1.1 30
07:40 1005 29.68 834 24.63 3 37.4 74 -1.1 30
07:45 1005 29.68 834 24.63 2.9 37.3 74 -1.3 29.7
07:50 1005 29.68 834 24.63 2.9 37.2 73 -1.4 29.5
07:55 1005 29.68 834 24.63 2.9 37.2 73 -1.4 29.4
08:00 1005 29.68 834 24.63 2.9 37.3 73 -1.4 29.6
08:05 1005 29.68 834 24.63 2.9 37.1 74 -1.2 29.8
08:10 1005 29.68 834 24.63 2.7 36.9 74 -1.5 29.3
08:15 1005 29.68 834 24.63 2.7 36.9 73 -1.7 29
08:20 1005 29.68 834 24.63 2.9 37.2 71 -1.9 28.6
08:25 1005 29.68 835 24.66 3 37.3 70 -1.9 28.5
08:30 1006 29.71 835 24.66 3 37.4 70 -1.9 28.6
08:35 1006 29.71 835 24.66 3 37.4 68 -2.3 27.9
08:40 1006 29.71 835 24.66 3.1 37.6 68 -2.1 28.1
08:45 1006 29.71 835 24.66 3 37.4 68 -2.4 27.7
08:50 1006 29.71 835 24.66 2.9 37.3 68 -2.4 27.6
08:55 1006 29.71 835 24.66 2.8 37 68 -2.5 27.5
09:00 1006 29.71 835 24.66 2.7 36.9 68 -2.5 27.5
09:05 1006 29.71 836 24.69 2.6 36.8 68 -2.7 27.1
09:10 1006 29.71 836 24.69 2.6 36.7 67 -2.9 26.7
09:15 1006 29.71 836 24.69 2.7 36.8 65 -3.3 26.1
09:20 1007 29.74 836 24.69 2.7 36.8 64 -3.5 25.7
09:25 1007 29.74 836 24.69 2.8 37 62 -3.7 25.4
09:30 1007 29.74 836 24.69 3 37.4 61 -3.8 25.2
09:35 1007 29.74 836 24.69 3.2 37.8 59 -4.1 24.7
09:40 1007 29.74 836 24.69 3.3 38 58 -4.1 24.6
09:45 1007 29.74 836 24.69 3.4 38.2 59 -3.9 25
09:50 1007 29.74 836 24.69 3.5 38.3 57 -4.2 24.4
09:55 1007 29.74 836 24.69 3.5 38.4 57 -4.3 24.3
10:00 1007 29.74 836 24.69 3.6 38.4 57 -4.1 24.7
10:05 1007 29.74 836 24.69 3.6 38.4 58 -4 24.8
10:10 1007 29.74 836 24.69 3.6 38.4 57 -4 24.7
10:15 1007 29.74 836 24.69 3.7 38.6 59 -3.7 25.4
10:20 1007 29.74 836 24.69 4.1 39.4 55 -4.1 24.5
10:25 1007 29.74 836 24.69 4.3 39.7 55 -3.9 25
10:30 1007 29.74 836 24.69 5 40.9 52 -4 24.8
10:35 1007 29.74 837 24.72 4.8 40.6 55 -3.6 25.6
10:40 1007 29.74 837 24.72 5 40.9 54 -3.4 25.8
10:45 1007 29.74 837 24.72 4.9 40.8 56 -3.1 26.4
10:50 1007 29.74 837 24.72 4.6 40.2 53 -4.1 24.6
10:55 1007 29.74 837 24.72 4.8 40.6 55 -3.6 25.6
11:00 1007 29.74 837 24.72 4.5 40.1 56 -3.6 25.5
11:05 1007 29.74 836 24.69 5.3 41.6 52 -3.8 25.2
11:10 1007 29.74 837 24.72 5.6 42 52 -3.4 25.8
11:15 1007 29.74 837 24.72 5.1 41.2 53 -3.7 25.4
11:20 1007 29.74 836 24.69 5.7 42.3 50 -3.9 24.9
11:25 1007 29.74 836 24.69 6 42.9 49 -4 24.8
11:30 1007 29.74 837 24.72 6.8 44.2 45 -4.3 24.3
11:35 1007 29.74 836 24.69 6.1 43 48 -3.9 24.9
11:40 1007 29.74 836 24.69 5.6 42.1 50 -4.1 24.7
11:45 1007 29.74 836 24.69 5.8 42.4 49 -4.1 24.7
11:50 1007 29.74 836 24.69 5.3 41.5 50 -4.3 24.2
11:55 1007 29.74 836 24.69 6.6 43.8 46 -4.1 24.6
12:00 1007 29.74 836 24.69 6.8 44.3 46 -3.9 24.9
12:05 1007 29.74 836 24.69 7.4 45.4 45 -3.7 25.3
12:10 1007 29.74 836 24.69 7.4 45.3 43 -4.3 24.3
12:15 1007 29.74 836 24.69 7.6 45.6 42 -4.4 24.1
12:20 1007 29.74 836 24.69 7.7 45.8 42 -4.3 24.3
12:25 1007 29.74 836 24.69 7.6 45.6 41 -4.9 23.3
12:30 1007 29.74 836 24.69 7.5 45.5 42 -4.7 23.6
12:35 1007 29.74 836 24.69 7.4 45.3 42 -4.8 23.4
12:40 1007 29.74 836 24.69 7.8 46.1 40 -4.8 23.4
12:45 1007 29.74 836 24.69 7.7 45.8 41 -4.7 23.5
12:50 1007 29.74 836 24.69 7.5 45.5 42 -4.5 23.8
12:55 1007 29.74 836 24.69 7.6 45.8 40 -5.1 22.9
13:00 1007 29.74 836 24.69 7.3 45.1 41 -5.1 22.9
13:05 1007 29.74 836 24.69 7.5 45.5 41 -4.9 23.1
13:10 1007 29.74 836 24.69 7.6 45.7 40 -5.1 22.8
13:15 1007 29.74 836 24.69 7.5 45.5 40 -5.3 22.4
13:20 1007 29.74 836 24.69 7.2 44.9 39 -5.8 21.6
13:25 1007 29.74 836 24.69 7.1 44.8 39 -5.8 21.5
13:30 1007 29.74 836 24.69 7 44.5 39 -5.9 21.3
13:35 1007 29.74 836 24.69 6.9 44.3 40 -5.8 21.5
13:40 1007 29.74 836 24.69 7.1 44.7 38 -6.2 20.9
13:45 1007 29.74 836 24.69 7.1 44.8 39 -5.9 21.4
13:50 1007 29.74 836 24.69 7.4 45.3 38 -6 21.2
13:55 1007 29.74 836 24.69 7.7 45.9 37 -6 21.1
14:00 1007 29.74 836 24.69 7.8 46.1 37 -6.1 21
14:05 1007 29.74 836 24.69 7.8 46 35 -6.7 20
14:10 1007 29.74 836 24.69 7.7 45.9 36 -6.3 20.7
14:15 1007 29.74 836 24.69 7.8 46 35 -6.6 20.2
14:20 1007 29.74 836 24.69 8 46.4 35 -6.4 20.5
14:25 1007 29.74 836 24.69 8.2 46.8 34 -6.6 20.2
14:30 1007 29.74 836 24.69 8.3 46.9 36 -5.8 21.5
14:35 1007 29.74 836 24.69 7.3 45.1 40 -5.6 21.9
14:40 1007 29.74 836 24.69 6 42.7 43 -5.7 21.7
14:45 1007 29.74 836 24.69 6 42.8 42 -6 21.2
14:50 1007 29.74 836 24.69 5.8 42.4 42 -6.2 20.9
14:55 1007 29.74 836 24.69 5.7 42.3 42 -6.2 20.9
15:00 1007 29.74 836 24.69 5.7 42.3 41 -6.7 20
15:05 1007 29.74 836 24.69 5.8 42.4 44 -5.6 21.9
15:10 1007 29.74 836 24.69 5.2 41.4 44 -5.9 21.3
15:15 1007 29.74 836 24.69 5.1 41.3 43 -6.3 20.7
15:20 1007 29.74 836 24.69 5.5 41.9 42 -6.4 20.4
15:25 1007 29.74 836 24.69 5.5 41.9 42 -6.4 20.4
15:30 1007 29.74 836 24.69 5.7 42.3 42 -6.3 20.6
15:35 1007 29.74 836 24.69 5.3 41.6 42 -6.4 20.4
15:40 1007 29.74 836 24.69 5 40.9 43 -6.7 20
15:45 1007 29.74 836 24.69 4.8 40.6 42 -6.9 19.5
15:50 1007 29.74 836 24.69 4.9 40.8 43 -6.6 20
15:55 1007 29.74 836 24.69 5.2 41.4 40 -7.2 19.1
16:00 1007 29.74 836 24.69 5.6 42 41 -6.8 19.8
16:05 1007 29.74 836 24.69 5.6 42.1 40 -6.9 19.5
16:10 1007 29.74 836 24.69 5.6 42.2 40 -6.9 19.5
16:15 1007 29.74 836 24.69 5.6 42.2 45 -5.4 22.2
16:20 1007 29.74 836 24.69 4.6 40.2 49 -5.3 22.5
16:25 1007 29.74 836 24.69 3.7 38.7 49 -6 21.2
16:30 1007 29.74 836 24.69 3.7 38.7 49 -6 21.2
16:35 1007 29.74 836 24.69 3.5 38.3 50 -5.9 21.4
16:40 1007 29.74 836 24.69 3 37.4 51 -6.2 20.9
16:45 1007 29.74 836 24.69 3 37.4 50 -6.4 20.5
16:50 1007 29.74 836 24.69 3.1 37.6 51 -6 21.2
16:55 1007 29.74 836 24.69 3.1 37.6 51 -6 21.2
17:00 1007 29.74 836 24.69 2.3 36.1 56 -5.5 22
17:05 1007 29.74 837 24.72 1.7 35.1 59 -5.5 22.1
17:10 1007 29.74 837 24.72 1.4 34.6 58 -6 21.3
17:15 1007 29.74 837 24.72 1.6 34.8 57 -6.1 21
17:20 1008 29.77 837 24.72 1.4 34.5 59 -5.7 21.7
17:25 1008 29.77 837 24.72 1.4 34.4 57 -6.2 20.8
17:30 1008 29.77 837 24.72 1.3 34.3 59 -5.8 21.5
17:35 1008 29.77 837 24.72 0.3 32.5 65 -5.6 21.9
17:40 1008 29.77 837 24.72 0.3 32.5 63 -6 21.2
17:45 1008 29.77 837 24.72 0 32.1 62 -6.4 20.5
17:50 1008 29.77 837 24.72 -0 32 61 -6.6 20.2
17:55 1008 29.77 837 24.72 0.2 32.3 62 -6.3 20.7
18:00 1008 29.77 837 24.72 -0 31.9 61 -6.8 19.8
18:05 1008 29.77 837 24.72 0.4 32.7 59 -6.8 19.8
18:10 1008 29.77 837 24.72 0.6 33.1 58 -6.7 19.9
18:15 1008 29.77 837 24.72 0.6 33 59 -6.5 20.4
18:20 1008 29.77 837 24.72 0.4 32.7 59 -6.7 20
18:25 1008 29.77 837 24.72 0.4 32.7 59 -6.8 19.8
18:30 1008 29.77 837 24.72 0.7 33.2 58 -6.7 19.9
18:35 1008 29.77 837 24.72 0.7 33.2 58 -6.7 19.9
18:40 1008 29.77 837 24.72 0.5 32.9 59 -6.6 20.1
18:45 1008 29.77 837 24.72 0.5 33 58 -6.7 19.9
18:50 1008 29.77 837 24.72 0.6 33 58 -6.7 20
18:55 1008 29.77 837 24.72 0.7 33.3 58 -6.6 20.2
19:00 1008 29.77 837 24.72 0.5 32.9 59 -6.5 20.3
19:05 1008 29.77 837 24.72 0.3 32.5 60 -6.6 20.1
19:10 1008 29.77 837 24.72 0.4 32.6 58 -7 19.4
19:15 1008 29.77 837 24.72 0.7 33.3 53 -7.7 18.1
19:20 1008 29.77 837 24.72 1.3 34.4 51 -7.7 18.2
19:25 1008 29.77 837 24.72 1.1 34 52 -7.8 18
19:30 1008 29.77 837 24.72 0.9 33.6 52 -8 17.6
19:35 1008 29.77 837 24.72 0.9 33.6 55 -7.1 19.2
19:40 1008 29.77 837 24.72 0.5 32.9 56 -7.2 19.1
19:45 1008 29.77 837 24.72 0.7 33.2 53 -7.8 18
19:50 1008 29.77 837 24.72 0.8 33.4 54 -7.4 18.7
19:55 1008 29.77 837 24.72 0.5 32.9 56 -7.4 18.7
20:00 1008 29.77 837 24.72 0.4 32.7 56 -7.4 18.6
20:05 1007 29.74 837 24.72 0.3 32.5 57 -7.3 18.8
20:10 1007 29.74 836 24.69 0.1 32.1 58 -7.3 18.8
20:15 1007 29.74 836 24.69 -0.1 31.8 58 -7.4 18.7
20:20 1007 29.74 836 24.69 -0.2 31.7 58 -7.5 18.5
20:25 1007 29.74 836 24.69 -0.1 31.9 57 -7.7 18.1
20:30 1007 29.74 836 24.69 0.2 32.3 56 -7.7 18.2
20:35 1007 29.74 836 24.69 0.3 32.5 56 -7.6 18.4
20:40 1007 29.74 837 24.72 0.3 32.6 56 -7.6 18.4
20:45 1007 29.74 837 24.72 0.3 32.5 55 -7.8 18
20:50 1007 29.74 837 24.72 0.4 32.7 55 -7.6 18.2
20:55 1007 29.74 836 24.69 0.3 32.6 56 -7.5 18.4
21:00 1007 29.74 836 24.69 0.2 32.3 56 -7.7 18.2
21:05 1007 29.74 837 24.72 0.2 32.4 55 -7.7 18.1
21:10 1007 29.74 836 24.69 0.2 32.3 55 -7.8 18
21:15 1007 29.74 836 24.69 0.1 32.1 56 -7.8 18
21:20 1007 29.74 837 24.72 -0.1 31.8 56 -7.8 17.9
21:25 1007 29.74 837 24.72 -0.2 31.7 56 -8 17.7
21:30 1007 29.74 836 24.69 -0.2 31.6 56 -7.9 17.7
21:35 1007 29.74 837 24.72 -0.1 31.9 56 -7.9 17.8
21:40 1007 29.74 836 24.69 -0.2 31.6 56 -8 17.5
21:45 1007 29.74 836 24.69 -0.3 31.4 56 -8.1 17.5
21:50 1007 29.74 836 24.69 -0.6 30.9 57 -8.1 17.3
21:55 1007 29.74 836 24.69 -0.5 31 57 -8 17.6
22:00 1007 29.74 836 24.69 -0.5 31.1 56 -8.2 17.2
22:05 1007 29.74 836 24.69 -0.5 31.1 57 -8 17.7
22:10 1007 29.74 836 24.69 -0.7 30.8 58 -8 17.6
22:15 1007 29.74 836 24.69 -0.7 30.7 59 -7.8 17.9
22:20 1007 29.74 837 24.72 -0.9 30.4 59 -8 17.6
22:25 1008 29.77 837 24.72 -0.8 30.5 59 -8 17.6
22:30 1008 29.77 837 24.72 -0.8 30.5 58 -8.1 17.4
22:35 1008 29.77 837 24.72 -0.6 30.9 57 -8.2 17.3
22:40 1008 29.77 837 24.72 -0.9 30.4 59 -7.8 17.9
22:45 1008 29.77 837 24.72 -1.1 30 58 -8.3 17
22:50 1008 29.77 837 24.72 -0.6 30.9 57 -8.1 17.4
22:55 1008 29.77 837 24.72 -0.6 31 57 -8 17.6
23:00 1008 29.77 837 24.72 -0.8 30.6 58 -8 17.6
23:05 1008 29.77 837 24.72 -0.8 30.6 58 -8.1 17.3
23:10 1007 29.74 837 24.72 -0.7 30.7 58 -8 17.6
23:15 1007 29.74 837 24.72 -0.8 30.5 59 -7.8 17.9
23:20 1007 29.74 837 24.72 -0.8 30.5 59 -7.9 17.9
23:25 1008 29.77 837 24.72 -1 30.3 59 -8.1 17.5
23:30 1007 29.74 837 24.72 -0.9 30.4 59 -7.9 17.7
23:35 1008 29.77 837 24.72 -0.9 30.4 59 -8.1 17.5
23:40 1007 29.74 837 24.72 -0.7 30.8 57 -8.2 17.3
23:45 1008 29.77 837 24.72 -0.6 30.9 57 -8.1 17.3
23:50 1007 29.74 837 24.72 -0.4 31.2 56 -8.1 17.5
23:55 1007 29.74 837 24.72 -0.6 31 57 -8 17.6
24:00 1007 29.74 837 24.72 -0.5 31 57 -8.1 17.4